Peru, Illinois
Current Conditions -  °F | °C
As of 4:15 PM on Friday 24 Oct 2014 (Local Time) from KVYS Reporting Station
Clear Clear  
Wind Chill: 68°   Ceiling: Unl
Heat Index: 68°   Visibility: 10mi
Dew Point: 49°   Wind: 8mph
Humidity: 51%   Direction: 220°SW
Pressure: 29.97"   Gusts: NA
Location:  41.33°N, 89.12°W
Report Text: KVYS 242115Z AUTO 22007KT 10SM CLR 20/10 A2997 RMK AO2 T02010097
Loading
Personal Weather Stations






























Interactive Weather Map
Tropical Storm Tracking
New forecast layout! Learn more

10-Day Weather Forecast

Advertisements
Track Severe Weather on mobile